Connecticut Logo

Bristol, CT Single Family Real Estate Listings

346 Total Real Estate Listings * Click on table heading to sort
Date Posted Property Type Style Address Price Living Area Lot Size Price/Sq Ft.
2017-08-20 Single Family Cape Cod 33 Melville Bristol, CT 06010 $160,000 1,188 sq. ft. 12,197 sq. ft. $135
2017-08-18 Single Family Cape Cod 230 West Washington Bristol, CT 06010 $169,900 1,349 sq. ft. 8,276 sq. ft. $126
2017-08-18 Single Family Cape Cod 634 Stafford Bristol, CT 06010 $199,900 3,521 sq. ft. 9,148 sq. ft. $57
2017-08-17 Single Family Ranch 1 Eugene Bristol, CT 06010 $159,900 1,180 sq. ft. 13,068 sq. ft. $136
2017-08-17 Single Family Colonial 505 South Bristol, CT 06010 $204,900 2,138 sq. ft. 13,939 sq. ft. $96
2017-08-17 Single Family Cape Cod 104 Driftwood Bristol, CT 06010 $249,900 2,301 sq. ft. 15,246 sq. ft. $109
2017-08-16 Single Family Cape Cod 66 Garfield Bristol, CT 06010 $188,000 1,543 sq. ft. 6,970 sq. ft. $122
2017-08-15 Single Family Cape Cod 181 Garden Bristol, CT 06010 $109,900 1,884 sq. ft. 6,098 sq. ft. $58
2017-08-15 Single Family Cape Cod 73 Grove Bristol, CT 06010 $369,900 5,700 sq. ft. 20,038 sq. ft. $65
2017-08-15 Single Family Cape Cod 21 South Street Extension Bristol, CT 06010 $159,900 1,228 sq. ft. 8,712 sq. ft. $130
2017-08-14 Single Family Cape Cod 154 Mercier Bristol, CT 06010 $215,000 1,709 sq. ft. 10,890 sq. ft. $126
2017-08-14 Single Family Colonial 30 Boy Bristol, CT 06010 $296,000 3,296 sq. ft. 30,492 sq. ft. $90
2017-08-14 Single Family Colonial 147 Lexington Bristol, CT 06010 $159,900 1,800 sq. ft. 16,553 sq. ft. $89
2017-08-13 Single Family Ranch 110 Bird Bristol, CT 06010 $315,500 1,707 sq. ft. 20,473 sq. ft. $185
2017-08-13 Single Family Ranch 304 Louisiana Bristol, CT 06010 $149,900 1,940 sq. ft. 14,375 sq. ft. $77
2017-08-12 Single Family Cape Cod 551 Pine Bristol, CT 06010 $120,000 1,267 sq. ft. 18,731 sq. ft. $95
2017-08-11 Single Family Colonial 235 Hart Bristol, CT 06010 $299,000 1,908 sq. ft. 26,136 sq. ft. $157
2017-08-11 Single Family Colonial 163 Maple Bristol, CT 06010 $160,000 3,959 sq. ft. 8,276 sq. ft. $40
2017-08-11 Single Family Ranch 176 Chapel Bristol, CT 06010 $199,900 1,512 sq. ft. 20,038 sq. ft. $132
2017-08-11 Single Family Colonial 106 Longview Bristol, CT 06010 $254,531 2,392 sq. ft. 30,928 sq. ft. $106
2017-08-10 Single Family Ranch 88 Forest Bristol, CT 06010 $68,000 768 sq. ft. 6,970 sq. ft. $89
2017-08-10 Single Family Ranch 58 Glendale Bristol, CT 06010 $275,000 1,526 sq. ft. 21,780 sq. ft. $180
2017-08-09 Single Family Bungalow 24 Fairlawn Bristol, CT 06010 $139,900 1,240 sq. ft. 7,405 sq. ft. $113
2017-08-09 Single Family Cape Cod 506 Fall Mountain Bristol, CT 06010 $199,900 1,448 sq. ft. 37,462 sq. ft. $138
2017-08-09 Single Family Colonial 104 Wildewood Bristol, CT 06010 $399,000 2,480 sq. ft. 42,689 sq. ft. $161
2017-08-09 Single Family Colonial 111 Plank Hill Bristol, CT 06010 $359,900 2,968 sq. ft. 15,246 sq. ft. $121
2017-08-09 Single Family Ranch 68 Glendale Bristol, CT 06010 $249,900 1,336 sq. ft. 16,117 sq. ft. $187
2017-08-09 Single Family Colonial 126 Tiffany Bristol, CT 06010 $255,000 2,144 sq. ft. 31,363 sq. ft. $119
2017-08-08 Single Family Raised Ranch 73 Salvatore Bristol, CT 06010 $199,900 1,832 sq. ft. 15,246 sq. ft. $109
2017-08-08 Single Family Contemporary; A-Frame 204 Norwalk Bristol, CT 06010 $239,900 2,330 sq. ft. 10,454 sq. ft. $103
2017-08-08 Single Family Raised Ranch 77 Maiden Bristol, CT 06010 $239,900 1,529 sq. ft. 19,166 sq. ft. $157
2017-08-08 Single Family Colonial; Contemporary 20 Summer Glen Bristol, CT 06010 $424,900 2,855 sq. ft. 24,829 sq. ft. $149
2017-08-08 Single Family Raised Ranch 235 Witches Rock Bristol, CT 06010 $269,900 1,988 sq. ft. 55,757 sq. ft. $136
2017-08-07 Single Family Colonial 48 Andrews Bristol, CT 06010 $229,000 2,808 sq. ft. 9,583 sq. ft. $82
2017-08-07 Single Family Ranch 25 Eugene Bristol, CT 06010 $79,900 900 sq. ft. 21,780 sq. ft. $89
2017-08-07 Single Family Cape Cod 58 Fairfield Bristol, CT 06010 $138,750 1,064 sq. ft. 9,583 sq. ft. $130
2017-08-06 Single Family Cape Cod 7 Stage Coach Bristol, CT 06010 $239,900 2,447 sq. ft. 18,295 sq. ft. $98
2017-08-06 Single Family Ranch 221 Birch Bristol, CT 06010 $146,900 1,104 sq. ft. 35,284 sq. ft. $133
2017-08-06 Single Family Colonial 20 Woodside Bristol, CT 06010 $364,900 2,552 sq. ft. 23,522 sq. ft. $143
2017-08-04 Single Family Ranch 80 Henderson Bristol, CT 06010 $115,000 1,080 sq. ft. 7,841 sq. ft. $106
2017-08-04 Single Family Colonial; Contemporary 440 Village Bristol, CT 06010 $420,000 4,348 sq. ft. 14,810 sq. ft. $97
2017-08-04 Single Family Colonial 318 Westwood Bristol, CT 06010 $469,900 4,095 sq. ft. 44,431 sq. ft. $115
2017-08-04 Single Family Colonial 522 Fern Hill Bristol, CT 06010 $399,900 2,602 sq. ft. 56,628 sq. ft. $154
2017-08-04 Single Family Contemporary 250 Wolcott Bristol, CT 06010 $369,900 2,748 sq. ft. 274,428 sq. ft. $135
2017-08-04 Single Family Contemporary 92 Larkspur Bristol, CT 06010 $339,000 2,934 sq. ft. 40,075 sq. ft. $116
2017-08-04 Single Family Ranch 20 Acorn Bristol, CT 06010 $264,900 2,272 sq. ft. 19,602 sq. ft. $117
2017-08-04 Single Family Raised Ranch 20 Michigan Bristol, CT 06010 $205,900 1,746 sq. ft. 15,246 sq. ft. $118
2017-08-04 Single Family Ranch 33 Concord Bristol, CT 06010 $169,900 1,538 sq. ft. 9,148 sq. ft. $110
2017-08-04 Single Family Raised Ranch 67 Violet Bristol, CT 06010 $199,900 1,634 sq. ft. 13,068 sq. ft. $122
2017-08-04 Single Family Ranch 6 Hepworth Bristol, CT 06010 $192,900 1,490 sq. ft. 12,197 sq. ft. $129
2017-08-04 Single Family Colonial 23 Morris Bristol, CT 06010 $164,883 1,850 sq. ft. 7,405 sq. ft. $89
2017-08-04 Single Family Cape Cod 70 Birge Bristol, CT 06010 $65,000 1,044 sq. ft. 6,970 sq. ft. $62
2017-08-04 Single Family Cape Cod 18 Winthrop Bristol, CT 06010 $94,900 1,500 sq. ft. 8,276 sq. ft. $63
2017-08-04 Single Family Colonial 71 View Bristol, CT 06010 $119,900 1,442 sq. ft. 19,166 sq. ft. $83
2017-08-04 Single Family Ranch 28 Birge Bristol, CT 06010 $73,000 800 sq. ft. 7,405 sq. ft. $91
2017-07-31 Single Family Split Level 23 Marine Bristol, CT 06010 $174,900 1,304 sq. ft. 29,621 sq. ft. $134
2017-07-30 Single Family Raised Ranch 110 Shrub Bristol, CT 06010 $179,900 1,232 sq. ft. 33,106 sq. ft. $146
2017-07-29 Single Family Cape Cod 104 Magnolia Bristol, CT 06010 $164,900 1,659 sq. ft. 7,841 sq. ft. $99
2017-07-28 Single Family Colonial 45 Foxwood Bristol, CT 06010 $289,900 2,624 sq. ft. 15,246 sq. ft. $110
2017-07-28 Single Family Ranch 26 Westchester Bristol, CT 06010 $135,000 936 sq. ft. 5,227 sq. ft. $144
2017-07-28 Single Family Colonial 23 Bishop Bristol, CT 06010 $165,000 1,134 sq. ft. 3,049 sq. ft. $146
2017-07-27 Single Family Split Level 158 Mark Bristol, CT 06010 $70,000 1,014 sq. ft. 11,326 sq. ft. $69
2017-07-26 Single Family Cottage 50 Fairfield Bristol, CT 06010 $164,900 1,100 sq. ft. 9,583 sq. ft. $150
2017-07-26 Single Family Cape Cod 420 Pine Bristol, CT 06010 $179,900 1,218 sq. ft. 11,326 sq. ft. $148
2017-07-25 Single Family Colonial 52 Crown Bristol, CT 06010 $146,280 1,700 sq. ft. 6,098 sq. ft. $86
2017-07-25 Single Family Cape Cod 217 Marcia Bristol, CT 06010 $279,900 1,896 sq. ft. 17,860 sq. ft. $148
2017-07-24 Single Family Cape Cod 63 Greystone Bristol, CT 06010 $128,900 1,267 sq. ft. 8,276 sq. ft. $102
2017-07-24 Single Family Raised Ranch 161 Carriage Bristol, CT 06010 $229,000 1,184 sq. ft. 15,246 sq. ft. $193
2017-07-24 Single Family Townhouse 481 Mix Bristol, CT 06010 $235,000 2,358 sq. ft. $100
2017-07-24 Single Family Colonial 59 Wolcott Bristol, CT 06010 $89,900 2,759 sq. ft. 5,227 sq. ft. $33
2017-07-24 Single Family Colonial 3 Boulder Bristol, CT 06010 $279,900 2,116 sq. ft. 18,295 sq. ft. $132
2017-07-22 Single Family Cape Cod 268 Fern Hill Bristol, CT 06010 $219,900 1,499 sq. ft. 12,197 sq. ft. $147
2017-07-22 Single Family Colonial 66 Maiden Bristol, CT 06010 $289,900 1,840 sq. ft. 18,295 sq. ft. $158
2017-07-20 Single Family Ranch 46 Jefferson Bristol, CT 06010 $135,000 960 sq. ft. 13,504 sq. ft. $141
2017-07-20 Single Family Colonial 365 Allentown Bristol, CT 06010 $269,900 1,854 sq. ft. $146
2017-07-20 Single Family Colonial 365 Allentown Bristol, CT 06010 $259,900 1,756 sq. ft. $148
2017-07-20 Single Family Cape Cod 170 Gridley Bristol, CT 06010 $85,000 1,287 sq. ft. 5,227 sq. ft. $66
2017-07-20 Single Family Cape Cod 30 Garfield Bristol, CT 06010 $80,000 1,160 sq. ft. 7,841 sq. ft. $69
2017-07-20 Single Family Cape Cod 3 Topview Bristol, CT 06010 $179,900 1,148 sq. ft. 9,148 sq. ft. $157
2017-07-20 Single Family Cape Cod 72 Field Bristol, CT 06010 $155,000 1,262 sq. ft. 10,019 sq. ft. $123
2017-07-20 Single Family Colonial 285 Glendale Bristol, CT 06010 $299,900 2,296 sq. ft. 30,056 sq. ft. $131
2017-07-20 Single Family Cape Cod 32 Missal Bristol, CT 06010 $159,900 1,120 sq. ft. 7,405 sq. ft. $143
2017-07-19 Single Family Raised Ranch 230 Rockwell Bristol, CT 06010 $190,000 1,622 sq. ft. 7,405 sq. ft. $117
2017-07-19 Single Family Cape Cod 14 Candy Bristol, CT 06010 $199,900 1,426 sq. ft. 11,326 sq. ft. $140
2017-07-19 Single Family Cape Cod 116 Rambler Bristol, CT 06010 $224,900 1,539 sq. ft. 14,375 sq. ft. $146
2017-07-18 Single Family Ranch 450 Brewster Bristol, CT 06010 $274,900 2,480 sq. ft. 23,087 sq. ft. $111
2017-07-18 Single Family Cape Cod 13 Melville Bristol, CT 06010 $180,000 1,175 sq. ft. 6,098 sq. ft. $153
2017-07-18 Single Family Colonial 125 Brandon Bristol, CT 06010 $289,000 2,094 sq. ft. 25,265 sq. ft. $138
2017-07-18 Single Family Raised Ranch 289 Louisiana Bristol, CT 06010 $149,900 1,122 sq. ft. 9,148 sq. ft. $134
2017-07-18 Single Family Cape Cod; Ranch 429 Woodland Bristol, CT 06010 $196,000 2,020 sq. ft. 15,246 sq. ft. $97
2017-07-17 Single Family Victorian 66 Bishop Bristol, CT 06010 $159,900 1,356 sq. ft. 4,792 sq. ft. $118
2017-07-17 Single Family Colonial 106 Owens Bristol, CT 06010 $419,900 3,106 sq. ft. 43,124 sq. ft. $135
2017-07-17 Single Family Cape Cod 167 Hopmeadow Bristol, CT 06010 $212,500 1,544 sq. ft. 26,136 sq. ft. $138
2017-07-17 Single Family Colonial 15 Spring Bristol, CT 06010 $289,900 2,686 sq. ft. 8,276 sq. ft. $108
2017-07-17 Single Family Colonial 104 Aldbourne Bristol, CT 06010 $209,900 1,700 sq. ft. 30,056 sq. ft. $123
2017-07-16 Single Family Ranch 173 Ivy Bristol, CT 06010 $239,900 1,144 sq. ft. 35,284 sq. ft. $210
2017-07-16 Single Family Cape Cod 21 Holt Bristol, CT 06010 $169,900 1,357 sq. ft. 7,841 sq. ft. $125
2017-07-15 Single Family Colonial 36 Roberts Bristol, CT 06010 $109,900 1,531 sq. ft. 3,920 sq. ft. $72
2017-07-15 Single Family Ranch 108 French Bristol, CT 06010 $184,900 932 sq. ft. 11,326 sq. ft. $198
2017-07-14 Single Family Cape Cod 8 Marion Bristol, CT 06010 $135,000 1,324 sq. ft. 6,970 sq. ft. $102
2017-07-14 Single Family Colonial 25 Hillcrest Bristol, CT 06010 $99,900 1,196 sq. ft. 10,019 sq. ft. $84
2017-07-14 Single Family Colonial 85 Apple Bristol, CT 06010 $349,900 2,476 sq. ft. 20,473 sq. ft. $141
2017-07-14 Single Family Single Family Detached 44 Hurley Bristol, CT 06010 $134,999 1,144 sq. ft. 11,326 sq. ft. $118
2017-07-13 Single Family Ranch 150 Sunnydale Bristol, CT 06010 $389,900 2,837 sq. ft. 44,431 sq. ft. $137
2017-07-12 Single Family Cape Cod 147 Bayberry Bristol, CT 06010 $134,900 974 sq. ft. 8,276 sq. ft. $138
2017-07-12 Single Family Bungalow 24 Buckley Bristol, CT 06010 $225,000 1,582 sq. ft. 19,166 sq. ft. $142
2017-07-12 Single Family Colonial 59 Uconn Bristol, CT 06010 $294,900 1,992 sq. ft. 27,443 sq. ft. $148
2017-07-12 Single Family Colonial 45 Anderson Bristol, CT 06010 $214,900 1,452 sq. ft. 7,841 sq. ft. $148
2017-07-12 Single Family Ranch 757 Jerome Bristol, CT 06010 $489,000 3,095 sq. ft. 304,920 sq. ft. $158
2017-07-12 Single Family Raised Ranch 97 Rockwell Bristol, CT 06010 $159,000 1,300 sq. ft. 6,534 sq. ft. $122
2017-07-12 Single Family Cape Cod 36 Surrey Bristol, CT 06010 $174,900 1,228 sq. ft. 9,583 sq. ft. $142
2017-07-11 Single Family Colonial 83 Oakwood Bristol, CT 06010 $359,900 2,121 sq. ft. 33,541 sq. ft. $170
2017-07-11 Single Family Ranch 118 Duncan Bristol, CT 06010 $189,900 960 sq. ft. 11,326 sq. ft. $198
2017-07-11 Single Family Cape Cod; Colonial 506 Pine Bristol, CT 06010 $224,900 1,346 sq. ft. 17,860 sq. ft. $167
2017-07-10 Single Family Cape Cod 366 East Bristol, CT 06010 $119,900 1,170 sq. ft. 5,227 sq. ft. $102
2017-07-10 Single Family Cape Cod; Contemporary 14 Inwood Bristol, CT 06010 $269,900 1,651 sq. ft. 15,246 sq. ft. $163
2017-07-10 Single Family Cape Cod 134 Morningside Bristol, CT 06010 $169,900 1,432 sq. ft. 10,454 sq. ft. $119
2017-07-08 Single Family Cape Cod 130 Castle Bristol, CT 06010 $249,900 1,307 sq. ft. 15,682 sq. ft. $191
2017-07-08 Single Family Raised Ranch 90 Old Farm Bristol, CT 06010 $249,900 2,240 sq. ft. 15,246 sq. ft. $112
2017-07-07 Single Family Ranch 30 Tuttle Bristol, CT 06010 $124,000 936 sq. ft. 9,583 sq. ft. $132
2017-07-07 Single Family Colonial 18 Tower Bristol, CT 06010 $279,900 2,402 sq. ft. 33,977 sq. ft. $117
2017-07-07 Single Family Ranch 90 Pheasant Run Bristol, CT 06010 $209,900 1,080 sq. ft. 18,295 sq. ft. $194
2017-07-06 Single Family Split Level 745 Willis Bristol, CT 06010 $259,900 1,944 sq. ft. 87,120 sq. ft. $134
2017-07-06 Single Family Colonial 14 Zipp Bristol, CT 06010 $154,900 1,104 sq. ft. 7,405 sq. ft. $140
2017-07-05 Single Family Colonial 266 Poitras Bristol, CT 06010 $309,900 2,180 sq. ft. 15,246 sq. ft. $142
2017-07-05 Single Family Colonial 101 Cameron Bristol, CT 06010 $289,900 2,244 sq. ft. 30,056 sq. ft. $129
2017-07-03 Single Family Ranch 171 Newell Bristol, CT 06010 $159,900 1,040 sq. ft. 8,712 sq. ft. $154
2017-07-02 Single Family Cape Cod 4 Alexander Bristol, CT 06010 $189,000 1,337 sq. ft. 5,663 sq. ft. $141
2017-06-30 Single Family Ranch 283 Morningside Bristol, CT 06010 $155,000 1,080 sq. ft. 6,534 sq. ft. $144
2017-06-30 Single Family Colonial 249 Washington Bristol, CT 06010 $109,900 1,320 sq. ft. 10,890 sq. ft. $83
2017-06-30 Single Family Ranch 52 Michael Bristol, CT 06010 $185,000 1,436 sq. ft. 11,326 sq. ft. $129
2017-06-30 Single Family Colonial 15 Stonecrest Bristol, CT 06010 $209,900 2,053 sq. ft. 7,405 sq. ft. $102
2017-06-30 Single Family Ranch 25 Louisiana Bristol, CT 06010 $131,900 1,312 sq. ft. 17,860 sq. ft. $101
2017-06-29 Single Family Cape Cod 14 Rosemont Bristol, CT 06010 $159,900 1,019 sq. ft. 7,405 sq. ft. $157
2017-06-29 Single Family Bungalow 80 Atkins Bristol, CT 06010 $179,900 1,185 sq. ft. 4,792 sq. ft. $152
2017-06-29 Single Family Colonial 75 Oehler Bristol, CT 06010 $293,500 1,907 sq. ft. 18,731 sq. ft. $154
2017-06-28 Single Family Cape Cod 134 Sycamore Bristol, CT 06010 $175,000 1,643 sq. ft. 10,019 sq. ft. $107
2017-06-28 Single Family Colonial 231 Cameron Bristol, CT 06010 $279,900 1,768 sq. ft. 25,265 sq. ft. $158
2017-06-27 Single Family Ranch 86 Brace Bristol, CT 06010 $165,000 960 sq. ft. 11,326 sq. ft. $172
2017-06-27 Single Family Raised Ranch 50 Pinnacle Bristol, CT 06010 $259,900 1,408 sq. ft. 27,007 sq. ft. $185
2017-06-27 Single Family Colonial 102 Del Prado Bristol, CT 06010 $275,900 2,352 sq. ft. 27,443 sq. ft. $117
2017-06-27 Single Family Cape Cod 108 Sycamore Bristol, CT 06010 $164,900 1,498 sq. ft. 5,227 sq. ft. $110
2017-06-26 Single Family Colonial 34 Evergreen Bristol, CT 06010 $159,900 1,430 sq. ft. 10,019 sq. ft. $112
2017-06-25 Single Family Colonial 193 Prospect Bristol, CT 06010 $135,000 2,420 sq. ft. 8,276 sq. ft. $56
2017-06-24 Single Family Split Level 18 Drayla Bristol, CT 06010 $249,900 1,733 sq. ft. 13,939 sq. ft. $144
2017-06-23 Single Family Colonial; Contemporary 201 Fox Hollow Bristol, CT 06010 $364,900 2,701 sq. ft. 48,787 sq. ft. $135
2017-06-23 Single Family Raised Ranch 30 Sherbrooke Bristol, CT 06010 $259,900 1,584 sq. ft. 21,780 sq. ft. $164
2017-06-23 Single Family Ranch 44 Michael Bristol, CT 06010 $174,000 1,148 sq. ft. 11,326 sq. ft. $152
2017-06-22 Single Family Cape Cod 95 Norwalk Bristol, CT 06010 $145,000 1,036 sq. ft. 15,682 sq. ft. $140
2017-06-21 Single Family Colonial 6 Treble Bristol, CT 06010 $252,000 2,124 sq. ft. 28,314 sq. ft. $119
2017-06-21 Single Family Colonial 66 Fox Hollow Bristol, CT 06010 $399,000 3,098 sq. ft. 33,106 sq. ft. $129
2017-06-21 Single Family Cape Cod 22 Farmstead Bristol, CT 06010 $189,900 1,459 sq. ft. 15,682 sq. ft. $130
2017-06-19 Single Family Mobile Home 40 Matthews St #19 Bristol, CT 06010 $54,900 1,152 sq. ft. $48
2017-06-19 Single Family Colonial 522 Fern Hill Road Bristol, CT 06010 $429,000 2,602 sq. ft. 56,628 sq. ft. $165
2017-06-19 Single Family Raised Ranch 609 Camp Bristol, CT 06010 $229,900 1,333 sq. ft. 29,185 sq. ft. $172
2017-06-19 Single Family Raised Ranch 85 Tuttle Bristol, CT 06010 $234,900 1,200 sq. ft. 9,583 sq. ft. $196
2017-06-19 Single Family Raised Ranch 16 Clearview Bristol, CT 06010 $244,900 1,200 sq. ft. 9,583 sq. ft. $204
2017-06-18 Single Family Ranch 110 Castle Bristol, CT 06010 $229,900 1,708 sq. ft. 11,761 sq. ft. $135
2017-06-18 Single Family Colonial 259 Old Orchard Bristol, CT 06011 $289,900 1,700 sq. ft. 27,530 sq. ft. $171
2017-06-16 Single Family Ranch 51 Pleasant View Bristol, CT 06010 $113,160 1,040 sq. ft. 7,405 sq. ft. $109
2017-06-16 Single Family Cape Cod 56 Stonecrest Bristol, CT 06010 $169,900 1,458 sq. ft. 8,276 sq. ft. $117
2017-06-15 Single Family Colonial 130 Mercier Bristol, CT 06010 $190,000 1,694 sq. ft. 10,890 sq. ft. $112
2017-06-15 Single Family Mobile Home 40 Matthews Bristol, CT 06010 $39,900 1,152 sq. ft. $35
2017-06-15 Single Family Raised Ranch 44 Litchfield Bristol, CT 06010 $194,900 1,368 sq. ft. 11,326 sq. ft. $142
2017-06-15 Single Family Ranch 93 Perry Bristol, CT 06010 $219,900 1,104 sq. ft. 11,326 sq. ft. $199
2017-06-13 Single Family Ranch 140 Sunnydale Bristol, CT 06010 $264,900 1,176 sq. ft. 20,038 sq. ft. $225
2017-06-13 Single Family Raised Ranch 23 Maywood Bristol, CT 06010 $219,900 2,116 sq. ft. 12,632 sq. ft. $104
2017-06-13 Single Family Ranch 324 Matthews Bristol, CT 06010 $499,500 1,010 sq. ft. 594,594 sq. ft. $495
2017-06-13 Single Family Raised Ranch 67 Haig Bristol, CT 06010 $96,000 1,074 sq. ft. 12,197 sq. ft. $89
2017-06-13 Single Family Colonial 188 Melinda Bristol, CT 06010 $279,900 2,967 sq. ft. 37,462 sq. ft. $94
2017-06-13 Single Family Ranch 310 Redstone Hill Bristol, CT 06010 $68,500 984 sq. ft. 13,068 sq. ft. $70
2017-06-12 Single Family Ranch 86 Perry Bristol, CT 06010 $204,900 1,224 sq. ft. 15,246 sq. ft. $167
2017-06-12 Single Family Ranch 113 Judson Bristol, CT 06010 $117,900 940 sq. ft. 15,682 sq. ft. $125
2017-06-12 Single Family Colonial 58 Leon Bristol, CT 06010 $199,000 1,586 sq. ft. 10,019 sq. ft. $125
2017-06-12 Single Family Ranch 15 Ohio Bristol, CT 06010 $234,900 1,618 sq. ft. 15,682 sq. ft. $145
2017-06-12 Single Family Ranch 27 Woodcrest Bristol, CT 06010 $209,900 1,474 sq. ft. 18,731 sq. ft. $142
2017-06-10 Single Family Raised Ranch 275 Robertson Bristol, CT 06010 $199,900 1,220 sq. ft. 15,246 sq. ft. $164
2017-06-09 Single Family Split Level 138 Falls Brook Bristol, CT 06010 $234,900 2,240 sq. ft. 29,185 sq. ft. $105
2017-06-09 Single Family Cape Cod 195 Mountain View Bristol, CT 06010 $149,900 1,040 sq. ft. 12,197 sq. ft. $144
2017-06-08 Single Family Bungalow; Cape Cod 286 Farmington Bristol, CT 06010 $99,000 1,393 sq. ft. 11,326 sq. ft. $71
2017-06-08 Single Family Colonial 59 Maple Bristol, CT 06010 $239,900 3,431 sq. ft. 36,982 sq. ft. $70
2017-06-08 Single Family Cape Cod 217 Louisiana Bristol, CT 06010 $172,500 1,412 sq. ft. 9,148 sq. ft. $122
2017-06-08 Single Family Contemporary; Raised Ranch 40 Acorn Bristol, CT 06010 $249,900 2,018 sq. ft. 20,038 sq. ft. $124
2017-06-07 Single Family Colonial 12 Pine View Bristol, CT 06010 $129,900 1,625 sq. ft. 16,988 sq. ft. $80
2017-06-07 Single Family Raised Ranch 85 James P Casey Bristol, CT 06010 $246,900 1,942 sq. ft. 25,265 sq. ft. $127
2017-06-07 Single Family Ranch 18 Josephine Bristol, CT 06010 $159,900 1,804 sq. ft. 8,712 sq. ft. $89
2017-06-07 Single Family Ranch 110 Sims Bristol, CT 06010 $224,900 1,354 sq. ft. 15,246 sq. ft. $166
2017-06-07 Single Family Half Duplex 85 Kenney Bristol, CT 06010 $174,900 1,347 sq. ft. 9,583 sq. ft. $130
2017-06-07 Single Family Cape Cod 24 Birch Bristol, CT 06010 $209,000 1,131 sq. ft. 34,848 sq. ft. $185
2017-06-05 Single Family Cape Cod 8 Ferraro Bristol, CT 06010 $189,900 1,814 sq. ft. 10,890 sq. ft. $105
2017-06-05 Single Family Cape Cod 60 Stevens Bristol, CT 06010 $169,000 1,346 sq. ft. 13,939 sq. ft. $126
2017-06-05 Single Family Ranch 126 Duncan Bristol, CT 06010 $209,900 1,680 sq. ft. 12,632 sq. ft. $125
2017-06-05 Single Family Colonial 140 Tiffany Bristol, CT 06010 $275,000 1,744 sq. ft. 36,590 sq. ft. $158
2017-06-03 Single Family Cape Cod; Colonial 24 Knibbs Bristol, CT 06010 $349,900 2,801 sq. ft. $125
2017-06-03 Single Family Ranch 135 Country Bristol, CT 06010 $214,950 1,562 sq. ft. 16,553 sq. ft. $138
2017-06-03 Single Family Colonial 12 Woodbridge Bristol, CT 06010 $399,900 3,292 sq. ft. 16,988 sq. ft. $121
2017-06-02 Single Family Colonial 85 Shrub Bristol, CT 06010 $239,000 2,272 sq. ft. 23,522 sq. ft. $105
2017-06-02 Single Family Raised Ranch 49 Dallas Bristol, CT 06010 $179,900 1,182 sq. ft. 8,712 sq. ft. $152
2017-06-01 Single Family Raised Ranch 20 Berkshire Bristol, CT 06010 $179,900 1,444 sq. ft. 23,087 sq. ft. $125
2017-05-31 Single Family Ranch 26 Terrace Bristol, CT 06010 $179,900 1,406 sq. ft. 17,860 sq. ft. $128
2017-05-31 Single Family Cape Cod 23 Tuttle Bristol, CT 06010 $169,900 10,019 sq. ft. $106
2017-05-31 Single Family Ranch 170 Old Wolcott Bristol, CT 06010 $219,900 1,648 sq. ft. 20,473 sq. ft. $133
2017-05-30 Single Family Cape Cod 22 Mechanic Bristol, CT 06010 $59,900 1,604 sq. ft. 8,276 sq. ft. $37
2017-05-30 Single Family Cape Cod 14 Balsam Bristol, CT 06010 $149,900 1,287 sq. ft. 5,227 sq. ft. $116
2017-05-28 Single Family Colonial 418 Willis Bristol, CT 06010 $259,999 1,882 sq. ft. 24,394 sq. ft. $138
2017-05-26 Single Family Colonial 92 Lois Bristol, CT 06010 $124,900 1,030 sq. ft. 4,792 sq. ft. $121
2017-05-26 Single Family Ranch 135 George Bristol, CT 06010 $219,900 2,010 sq. ft. 11,761 sq. ft. $109
2017-05-26 Single Family Cape Cod 234 Round Hill Bristol, CT 06010 $149,900 1,249 sq. ft. 14,375 sq. ft. $120
2017-05-24 Single Family Raised Ranch 85 Diane Bristol, CT 06010 $235,000 1,294 sq. ft. 20,909 sq. ft. $182
2017-05-24 Single Family Cape Cod 57 Renee Bristol, CT 06010 $176,900 1,584 sq. ft. 11,326 sq. ft. $112
2017-05-23 Single Family Colonial 43 Cricket Hill Bristol, CT 06010 $380,000 2,386 sq. ft. 24,829 sq. ft. $159
2017-05-23 Single Family Cape Cod 89 Lois Bristol, CT 06010 $208,900 1,592 sq. ft. 6,098 sq. ft. $131
2017-05-23 Single Family Raised Ranch 45 Village Bristol, CT 06010 $209,900 1,676 sq. ft. 15,246 sq. ft. $125
2017-05-22 Single Family Raised Ranch 36 Richard Bristol, CT 06010 $239,900 1,682 sq. ft. 18,731 sq. ft. $143
2017-05-22 Single Family Colonial 42 Woodside Bristol, CT 06010 $349,900 2,592 sq. ft. 24,394 sq. ft. $135
2017-05-22 Single Family Colonial 5 Knibbs Bristol, CT 06010 $359,900 2,152 sq. ft. $167
2017-05-22 Single Family Raised Ranch 225 Witches Rock Bristol, CT 06010 $214,900 1,500 sq. ft. 52,272 sq. ft. $143
2017-05-22 Single Family Colonial 266 West Washington Bristol, CT 06010 $194,900 1,768 sq. ft. 10,890 sq. ft. $110
2017-05-21 Single Family Cape Cod 61 Paul Bristol, CT 06010 $179,000 1,368 sq. ft. 11,326 sq. ft. $131
2017-05-19 Single Family Ranch 509 Allentown Bristol, CT 06010 $54,900 680 sq. ft. 7,841 sq. ft. $81
2017-05-18 Single Family Colonial 65 Carriage Bristol, CT 06010 $389,900 3,304 sq. ft. 48,787 sq. ft. $118
2017-05-18 Single Family Colonial 324 Brewster Bristol, CT 06010 $309,900 2,675 sq. ft. 44,431 sq. ft. $116
2017-05-17 Single Family Colonial 55 Case Bristol, CT 06010 $209,900 1,620 sq. ft. 10,890 sq. ft. $130
2017-05-17 Single Family Cape Cod 59 Stonecrest Bristol, CT 06010 $130,000 1,009 sq. ft. 8,712 sq. ft. $129
2017-05-17 Single Family Ranch 1 Cherokee Bristol, CT 06010 $154,900 1,270 sq. ft. 9,148 sq. ft. $122
2017-05-16 Single Family Raised Ranch 22 Seminary Bristol, CT 06010 $228,900 1,450 sq. ft. 12,197 sq. ft. $158
2017-05-16 Single Family Ranch 176 Adams Bristol, CT 06010 $398,000 1,340 sq. ft. 879,912 sq. ft. $297
2017-05-15 Single Family Colonial 335 Pennwood Bristol, CT 06010 $479,900 3,609 sq. ft. 51,401 sq. ft. $133
2017-05-15 Single Family Ranch 49 5th Bristol, CT 06010 $100,000 876 sq. ft. 5,227 sq. ft. $114
2017-05-15 Single Family Colonial 720 Hill Bristol, CT 06010 $340,000 2,686 sq. ft. 27,443 sq. ft. $127
2017-05-15 Single Family Colonial 151 Oakland Bristol, CT 06010 $174,900 1,428 sq. ft. 6,970 sq. ft. $122
2017-05-13 Single Family Cape Cod 23 Briarwood Bristol, CT 06010 $102,500 1,154 sq. ft. 6,970 sq. ft. $89
2017-05-13 Single Family Ranch 136 Union Bristol, CT 06010 $59,900 960 sq. ft. 10,019 sq. ft. $62
2017-05-13 Single Family Contemporary 14 Chatham Bristol, CT 06010 $159,500 1,144 sq. ft. 7,841 sq. ft. $139
2017-05-12 Single Family Ranch 356 Village Bristol, CT 06010 $389,000 2,104 sq. ft. 16,117 sq. ft. $185
2017-05-12 Single Family Colonial 9 Mills Bristol, CT 06010 $153,900 1,178 sq. ft. 10,019 sq. ft. $131
2017-05-12 Single Family Ranch 35 Jacqueline Bristol, CT 06010 $184,900 1,352 sq. ft. 15,682 sq. ft. $137
2017-05-12 Single Family Colonial 291 Brewster Bristol, CT 06010 $419,900 3,795 sq. ft. 32,234 sq. ft. $111
2017-05-11 Single Family Colonial 6 Broadview Bristol, CT 06010 $169,900 1,710 sq. ft. 7,841 sq. ft. $99
2017-05-11 Single Family Raised Ranch 142 Daley Bristol, CT 06010 $179,400 1,138 sq. ft. 19,166 sq. ft. $158
2017-05-10 Single Family Colonial 308 Woodland Bristol, CT 06010 $174,900 13,504 sq. ft. $105
2017-05-08 Single Family Colonial 38 Haig Bristol, CT 06010 $119,900 1,326 sq. ft. 10,890 sq. ft. $90
2017-05-05 Single Family Colonial 26 Palmorr Bristol, CT 06010 $428,000 3,510 sq. ft. 25,265 sq. ft. $122
2017-05-05 Single Family Ranch 62 Judson Bristol, CT 06010 $144,900 1,040 sq. ft. 5,227 sq. ft. $139
2017-05-04 Single Family Colonial 206 Brewster Bristol, CT 06010 $299,900 2,904 sq. ft. 17,424 sq. ft. $103
2017-05-04 Single Family Cape Cod 73 Woodbridge Bristol, CT 06010 $309,000 2,230 sq. ft. 21,780 sq. ft. $139
2017-05-04 Single Family Colonial 34 Maurice Bristol, CT 06010 $174,900 5,227 sq. ft. $112
2017-05-03 Single Family Raised Ranch 52 Concord Bristol, CT 06010 $187,900 1,080 sq. ft. 9,148 sq. ft. $174
2017-05-03 Single Family Cape Cod 29 Missal Bristol, CT 06010 $168,500 1,259 sq. ft. 7,405 sq. ft. $134
2017-05-03 Single Family 342 Burlington Bristol, CT 06010 $159,900 6,098 sq. ft. $138
2017-05-03 Single Family Cape Cod 240 Beths Bristol, CT 06010 $139,900 1,056 sq. ft. 8,276 sq. ft. $132
2017-05-03 Single Family Tudor 184 Hollyberry Bristol, CT 06010 $419,900 3,551 sq. ft. 28,750 sq. ft. $118
2017-05-02 Single Family Ranch 509 Brook Bristol, CT 06010 $139,000 960 sq. ft. 12,632 sq. ft. $145
2017-05-01 Single Family Cape Cod 64 Emily Bristol, CT 06010 $169,900 1,235 sq. ft. 15,682 sq. ft. $138
2017-05-01 Single Family Raised Ranch 571 Perkins Bristol, CT 06010 $195,000 1,248 sq. ft. 25,265 sq. ft. $156
2017-05-01 Single Family Cape Cod 605 Witches Rock Bristol, CT 06010 $539,900 1,535 sq. ft. 35,284 sq. ft. $352
2017-05-01 Single Family Raised Ranch 162 Redstone Bristol, CT 06010 $289,900 1,524 sq. ft. 45,302 sq. ft. $190
2017-04-29 Single Family Ranch 182 Shrub Bristol, CT 06010 $164,900 1,092 sq. ft. 34,848 sq. ft. $151
2017-04-29 Single Family Colonial 209 Wolcott Bristol, CT 06010 $134,900 1,896 sq. ft. 27,007 sq. ft. $71
2017-04-28 Single Family Colonial 120 Garden Bristol, CT 06010 $269,900 2,481 sq. ft. 10,019 sq. ft. $109
2017-04-28 Single Family Cape Cod 147 Brook Bristol, CT 06010 $99,000 1,294 sq. ft. 10,454 sq. ft. $77
2017-04-27 Single Family Cape Cod 66 Missal Bristol, CT 06010 $175,000 1,259 sq. ft. 7,405 sq. ft. $139
2017-04-26 Single Family Antique; Cape Cod 860 Stafford Bristol, CT 06010 $250,000 1,927 sq. ft. 22,216 sq. ft. $130
2017-04-26 Single Family Raised Ranch 37 Central Bristol, CT 06010 $209,900 1,438 sq. ft. 4,792 sq. ft. $146
2017-04-25 Single Family Colonial 17 Henry Bristol, CT 06010 $155,000 1,018 sq. ft. 11,326 sq. ft. $152
2017-04-24 Single Family Ranch 109 Sherbrook Bristol, CT 06010 $159,900 1,092 sq. ft. 32,234 sq. ft. $146
2017-04-22 Single Family Cape Cod 98 Collins Bristol, CT 06010 $163,900 1,140 sq. ft. 8,712 sq. ft. $144
2017-04-22 Single Family Ranch 501 Birch Bristol, CT 06010 $149,900 1,320 sq. ft. 22,651 sq. ft. $114
2017-04-22 Single Family Cape Cod 51 Beckwith Bristol, CT 06062 $139,900 1,080 sq. ft. 6,970 sq. ft. $130
2017-04-22 Single Family Cape Cod 164 Old Wolcott Bristol, CT 06010 $128,000 12,197 sq. ft. $89
2017-04-21 Single Family Ranch 217 Willis Bristol, CT 06010 $164,900 1,008 sq. ft. 6,098 sq. ft. $164
2017-04-20 Single Family Ranch 111 Collins Bristol, CT 06010 $139,900 912 sq. ft. 14,375 sq. ft. $153
2017-04-20 Single Family Cape Cod 494 Mix Bristol, CT 06010 $174,900 1,346 sq. ft. 26,572 sq. ft. $130
2017-04-19 Single Family Colonial 365 Allentown Bristol, CT 06010 $304,900 2,307 sq. ft. $132
2017-04-18 Single Family Cape Cod 103 Pleasantview Bristol, CT 06010 $189,900 1,414 sq. ft. 6,534 sq. ft. $134
2017-04-17 Single Family Colonial 145 Nelson Farm Bristol, CT 06010 $349,900 2,426 sq. ft. 25,265 sq. ft. $144
2017-04-17 Single Family Bungalow; Cape Cod; Cottage 15 Martin Bristol, CT 06010 $134,999 792 sq. ft. 6,098 sq. ft. $170
2017-04-17 Single Family Raised Ranch 36 Debra Bristol, CT 06010 $209,900 1,534 sq. ft. 11,326 sq. ft. $137
2017-04-15 Single Family Raised Ranch 170 Longview Bristol, CT 06010 $215,000 1,588 sq. ft. 30,056 sq. ft. $135
2017-04-13 Single Family Colonial 607 Burlington Bristol, CT 06010 $285,000 4,033 sq. ft. 19,166 sq. ft. $71
2017-04-12 Single Family Colonial 87 Vincent Bristol, CT 06010 $182,900 1,585 sq. ft. 10,019 sq. ft. $115
2017-04-12 Single Family Cape Cod 41 Talmadge Bristol, CT 06010 $119,900 938 sq. ft. 5,227 sq. ft. $128
2017-04-12 Single Family Townhouse 380 King Bristol, CT 06010 $225,000 1,450 sq. ft. $155
2017-04-12 Single Family Townhouse 380 King Bristol, CT 06010 $225,000 1,450 sq. ft. $155
2017-04-12 Single Family Townhouse 380 King Bristol, CT 06010 $225,000 1,450 sq. ft. $155
2017-04-12 Single Family Raised Ranch 317 Farmington Bristol, CT 06010 $179,900 1,028 sq. ft. 11,326 sq. ft. $175
2017-04-08 Single Family Raised Ranch 480 Willis Bristol, CT 06010 $259,900 1,393 sq. ft. 31,363 sq. ft. $187
2017-04-06 Single Family Colonial 164 Minnesota Bristol, CT 06010 $264,900 1,944 sq. ft. 15,682 sq. ft. $136
2017-04-05 Single Family Hi-Ranch 42 Eastview Bristol, CT 06010 $139,900 1,352 sq. ft. 6,098 sq. ft. $103
2017-04-01 Single Family Colonial 65 Couture Bristol, CT 06010 $235,000 2,085 sq. ft. 21,780 sq. ft. $113
2017-03-30 Single Family Cape Cod 503 Waterbury Bristol, CT 06010 $129,900 1,267 sq. ft. 20,038 sq. ft. $103
2017-03-28 Single Family Colonial 17 Walnut Bristol, CT 06010 $104,900 1,250 sq. ft. 6,098 sq. ft. $84
2017-03-26 Single Family Colonial 20 Henry Bristol, CT 06010 $139,900 990 sq. ft. 7,405 sq. ft. $141
2017-03-20 Single Family Raised Ranch 1089 Matthews Bristol, CT 06010 $164,900 22,651 sq. ft. $132
2017-03-19 Single Family Cape Cod; Colonial 140 Barlow Bristol, CT 06010 $114,900 1,000 sq. ft. 7,405 sq. ft. $115
2017-03-14 Single Family Cape Cod 63 Vance Bristol, CT 06010 $157,900 1,267 sq. ft. 10,454 sq. ft. $125
2017-03-14 Single Family Cape Cod 47 Martin Bristol, CT 06010 $165,000 1,557 sq. ft. 21,780 sq. ft. $106
2017-03-13 Single Family Cape Cod 117 John Bristol, CT 06010 $174,900 1,728 sq. ft. 8,712 sq. ft. $101
2017-03-13 Single Family Ranch 46 Rosemont Bristol, CT 06010 $239,900 1,668 sq. ft. 9,583 sq. ft. $144
2017-03-09 Single Family Cape Cod 19 Field Bristol, CT 06010 $112,500 1,139 sq. ft. 11,326 sq. ft. $99
2017-03-09 Single Family Single Family Detached 24 Chatham Bristol, CT 06010 $158,500 1,320 sq. ft. 6,534 sq. ft. $120
2017-03-08 Single Family Cape Cod 90 Jewel Bristol, CT 06010 $199,900 1,961 sq. ft. 15,246 sq. ft. $102
2017-03-06 Single Family Victorian 352 Washington Bristol, CT 06010 $249,900 2,160 sq. ft. 17,424 sq. ft. $116
2017-03-01 Single Family Ranch 63 Matilda Bristol, CT 06010 $119,900 672 sq. ft. 8,276 sq. ft. $178
2017-02-23 Single Family Ranch 31 Barnes Bristol, CT 06010 $129,900 768 sq. ft. 5,663 sq. ft. $169
2017-02-22 Single Family Raised Ranch 86 Mossa Bristol, CT 06010 $269,900 1,928 sq. ft. 27,443 sq. ft. $140
2017-02-16 Single Family Colonial 33 Christopher Bristol, CT 06010 $114,900 1,169 sq. ft. 7,405 sq. ft. $98
2017-02-14 Single Family Colonial 527 North Main Bristol, CT 06010 $159,000 946 sq. ft. 3,920 sq. ft. $168
2017-01-31 Single Family Cape Cod 161 Peck Bristol, CT 06010 $179,900 15,246 sq. ft. $134
2017-01-27 Single Family Colonial 32 Colony Bristol, CT 06010 $109,900 3,920 sq. ft. $80
2017-01-20 Single Family Ranch 32 Mohican Bristol, CT 06010 $109,000 1,305 sq. ft. 9,583 sq. ft. $84
2017-01-09 Single Family Cape Cod 20 Marion Bristol, CT 06010 $130,000 1,044 sq. ft. 8,712 sq. ft. $125
2017-01-06 Single Family Raised Ranch 124 Muir Bristol, CT 06010 $159,900 1,299 sq. ft. 17,424 sq. ft. $123
2017-01-02 Single Family Colonial 16 Great Pyrenees Bristol, CT 06010 $499,900 4,553 sq. ft. 53,579 sq. ft. $110
2016-12-29 Single Family Ranch Lot 29 Roberts Bristol, CT 06010 $285,000 1,300 sq. ft. $219
2016-12-18 Single Family Ranch 93 Rosemont Bristol, CT 06010 $140,000 960 sq. ft. 5,227 sq. ft. $146
2016-12-15 Single Family Bungalow 26 Gridley Bristol, CT 06010 $69,900 786 sq. ft. 7,841 sq. ft. $89
2016-12-12 Single Family Antique 29 Broadview Bristol, CT 06010 $159,900 1,700 sq. ft. 7,405 sq. ft. $94
2016-12-08 Single Family Cape Cod 70 John Bristol, CT 06010 $116,810 1,479 sq. ft. 7,405 sq. ft. $79
2016-11-28 Single Family Colonial 18 Fairlawn Bristol, CT 06010 $173,900 7,405 sq. ft. $105
2016-11-23 Single Family Cape Cod 331 Beths Bristol, CT 06010 $169,900 1,459 sq. ft. 13,068 sq. ft. $116
2016-10-27 Single Family Cape Cod 29 Sylvia Bristol, CT 06010 $145,900 1,267 sq. ft. 7,405 sq. ft. $115
2016-10-21 Single Family Ranch 289 Witches Rock Bristol, CT 06010 $159,900 984 sq. ft. 78,844 sq. ft. $162
2016-10-18 Single Family Ranch 73 Jeannette Bristol, CT 06010 $114,999 966 sq. ft. 4,792 sq. ft. $119
2016-10-14 Single Family Cape Cod; Colonial 405 Stevens Bristol, CT 06010 $228,700 1,602 sq. ft. 16,117 sq. ft. $143
2016-10-07 Single Family Raised Ranch 21 Lexi Bristol, CT 06010 $279,900 2,063 sq. ft. 17,424 sq. ft. $136
2016-10-06 Single Family Colonial 261 Tyler Bristol, CT 06010 $229,000 2,228 sq. ft. 26,136 sq. ft. $103
2016-10-01 Single Family Ranch 10 Boulder Bristol, CT 06010 $214,000 2,610 sq. ft. 15,246 sq. ft. $82
2016-09-30 Single Family Colonial 610 Terryville Bristol, CT 06010 $159,900 1,183 sq. ft. 13,939 sq. ft. $135
2016-09-26 Single Family Colonial 21 Hadden Bristol, CT 06010 $289,900 2,760 sq. ft. 33,541 sq. ft. $105
2016-09-15 Single Family Raised Ranch 162 Kozani Bristol, CT 06010 $129,900 1,360 sq. ft. 13,939 sq. ft. $96
2016-09-09 Single Family Ranch 22 Trelli Bristol, CT 06010 $290,900 1,663 sq. ft. 15,682 sq. ft. $175
2016-08-24 Single Family 645 Wolcott Bristol, CT 06010 $125,000 1,046 sq. ft. 8,276 sq. ft. $120
2016-08-12 Single Family Ranch 678 Pine Bristol, CT 06010 $79,900 936 sq. ft. 14,810 sq. ft. $85
2016-08-10 Single Family Victorian 131 Summer Bristol, CT 06010 $216,900 5,439 sq. ft. 9,148 sq. ft. $40
2016-08-04 Single Family Colonial 97 Fair Bristol, CT 06010 $159,900 1,700 sq. ft. 45,738 sq. ft. $94
2016-07-16 Single Family Ranch 126 Lewis Bristol, CT 06010 $109,900 1,111 sq. ft. 15,246 sq. ft. $99
2016-07-11 Single Family Cape Cod 203 Mercier Bristol, CT 06010 $155,000 1,114 sq. ft. 10,890 sq. ft. $139
2016-06-23 Single Family Colonial; Farm House 2129 Perkins Bristol, CT 06010 $265,000 2,222 sq. ft. 43,560 sq. ft. $119
2016-06-13 Single Family Ranch 87 Crown Bristol, CT 06010 $115,000 1,198 sq. ft. 6,970 sq. ft. $96
2016-06-10 Single Family Raised Ranch 22 Cranberry Bristol, CT 06010 $185,900 1,132 sq. ft. 15,246 sq. ft. $164
2016-03-04 Single Family Cape Cod 26 Jennings Bristol, CT 06010 $124,900 1,146 sq. ft. 6,534 sq. ft. $109
2016-02-11 Single Family Cape Cod 58 Redwood Bristol, CT 06010 $119,900 1,476 sq. ft. 16,117 sq. ft. $81
2015-06-23 Single Family Colonial 446 Stafford Bristol, CT 06010 $199,900 2,020 sq. ft. 47,916 sq. ft. $99
2015-06-15 Single Family Cape Cod 30 Rosemary Bristol, CT 06010 $189,000 1,898 sq. ft. 16,117 sq. ft. $100
2014-02-10 Single Family Colonial 10-6 Pinehurst Bristol, CT 06010 $459,900 2,600 sq. ft. 47,916 sq. ft. $177